FW1651 Weather Reports


Display with metric or nautical units.
time (UTC)temp
F
wind
direction
speed
MPH
gust
MPH
rain 1hr
in
rain 24hr
in
rain mn
in
humidity
%
barometer
mb
20220624232718 87 180 2.0 3.0 0.00 0.00 0.00 71 1014.9
20220624232218 87 162 2.0 3.0 0.00 0.00 0.00 72 1014.7
20220624231714 87 159 2.0 6.0 0.00 0.00 0.00 70 1014.4
20220624231213 87 168 4.0 6.0 0.00 0.00 0.00 70 1014.3
20220624230711 87 161 4.0 7.0 0.00 0.00 0.00 69 1014.2
20220624230210 87 103 5.0 6.0 0.00 0.00 0.00 69 1014.3
20220624225710 87 150 5.0 6.0 0.00 0.00 0.00 68 1014.1
20220624225208 87 172 3.0 6.0 0.00 0.00 0.00 68 1014.4
20220624224708 87 165 2.0 8.0 0.00 0.00 0.00 69 1014.0
20220624224206 87 141 8.0 10.0 0.00 0.00 0.00 68 1013.8
20220624223705 87 154 5.0 7.0 0.00 0.00 0.00 68 1013.8
20220624223203 87 146 7.0 11.0 0.00 0.00 0.00 67 1013.9
20220624222701 87 147 6.0 10.0 0.00 0.00 0.00 67 1013.9
20220624222200 87 152 8.0 14.0 0.00 0.00 0.00 67 1013.8
20220624221700 88 135 7.0 9.0 0.00 0.00 0.00 66 1013.7
20220624221159 88 116 6.0 10.0 0.00 0.00 0.00 65 1013.7
20220624220658 89 154 4.0 9.0 0.00 0.00 0.00 64 1013.6
20220624220158 88 148 5.0 11.0 0.00 0.00 0.00 66 1013.7
20220624215658 88 135 9.0 13.0 0.00 0.00 0.00 65 1013.5
20220624215157 88 133 7.0 14.0 0.00 0.00 0.00 63 1013.7
20220624214656 89 155 4.0 10.0 0.00 0.00 0.00 63 1013.4
20220624214155 88 148 6.0 11.0 0.00 0.00 0.00 62 1013.6
20220624213654 88 141 10.0 12.0 0.00 0.00 0.00 64 1013.6
20220624213154 88 150 9.0 13.0 0.00 0.00 0.00 62 1013.7
20220624212653 90 135 5.0 11.0 0.00 0.00 0.00 60 1013.5
20220624212152 89 124 2.0 9.0 0.00 0.00 0.00 58 1013.3
20220624211651 89 174 7.0 8.0 0.00 0.00 0.00 59 1013.2
20220624211152 89 125 4.0 7.0 0.00 0.00 0.00 63 1013.4
20220624210651 89 137 6.0 7.0 0.00 0.00 0.00 61 1013.2
20220624210149 88 141 6.0 10.0 0.00 0.00 0.00 63 1013.4
20220624205649 87 194 1.0 13.0 0.00 0.00 0.00 64 1013.3
20220624205148 86 117 11.0 17.0 0.00 0.00 0.00 68 1013.4
20220624204647 86 138 10.0 19.0 0.00 0.00 0.00 68 1013.5
20220624204147 84 132 13.0 25.0 0.00 0.00 0.00 70 1013.6
20220624203647 83 149 17.0 25.0 0.00 0.00 0.00 66 1013.9
20220624203148 87 128 9.0 22.0 0.00 0.00 0.00 59 1014.0
20220624202646 86 158 15.0 22.0 0.00 0.00 0.00 64 1014.0
20220624202145 89 125 17.0 18.0 0.00 0.00 0.00 59 1013.6
20220624201644 90 158 11.0 25.0 0.00 0.00 0.00 57 1013.6
20220624201145 96 161 5.0 9.0 0.00 0.00 0.00 47 1013.7
20220624200643 96 225 4.0 7.0 0.00 0.00 0.00 44 1013.6
20220624200143 97 257 4.0 6.0 0.00 0.00 0.00 44 1013.8
20220624195642 95 254 6.0 7.0 0.00 0.00 0.00 45 1013.8
20220624195142 96 270 4.0 5.0 0.00 0.00 0.00 44 1013.9
20220624194640 95 214 4.0 8.0 0.00 0.00 0.00 46 1013.7
20220624194140 95 283 4.0 8.0 0.00 0.00 0.00 45 1013.8
20220624193639 94 256 3.0 11.0 0.00 0.00 0.00 48 1013.8
20220624193137 95 218 5.0 5.0 0.00 0.00 0.00 47 1013.8
20220624192636 93 106 5.0 7.0 0.00 0.00 0.00 50 1014.2
20220624192136 95 237 4.0 9.0 0.00 0.00 0.00 47 1014.1
20220624191636 95 119 0.0 9.0 0.00 0.00 0.00 47 1014.4
20220624191136 95 162 2.0 5.0 0.00 0.00 0.00 47 1014.7
20220624190635 94 257 8.0 11.0 0.00 0.00 0.00 49 1014.6
20220624190136 95 253 9.0 9.0 0.00 0.00 0.00 48 1014.7
20220624185635 95 233 3.0 6.0 0.00 0.00 0.00 49 1014.7
20220624185134 95 303 6.0 11.0 0.00 0.00 0.00 47 1014.9
20220624184634 93 248 3.0 9.0 0.00 0.00 0.00 51 1015.0
20220624184134 94 262 6.0 10.0 0.00 0.00 0.00 50 1014.8
20220624183633 96 180 0.0 3.0 0.00 0.00 0.00 48 1015.3
20220624183131 94 300 1.0 7.0 0.00 0.00 0.00 52 1015.3
20220624182630 95 297 2.0 4.0 0.00 0.00 0.00 50 1015.2
20220624182130 94 107 3.0 6.0 0.00 0.00 0.00 51 1015.2
20220624181630 96 227 3.0 3.0 0.00 0.00 0.00 51 1015.1
20220624181129 95 270 3.0 6.0 0.00 0.00 0.00 50 1015.5
20220624180628 92 285 1.0 8.0 0.00 0.00 0.00 53 1015.5
20220624180128 94 270 9.0 9.0 0.00 0.00 0.00 53 1015.7
20220624175627 95 240 2.0 3.0 0.00 0.00 0.00 50 1015.5
20220624175126 92 240 3.0 10.0 0.00 0.00 0.00 53 1015.7
20220624174624 91 180 2.0 7.0 0.00 0.00 0.00 56 1015.7
20220624174123 91 257 4.0 7.0 0.00 0.00 0.00 55 1015.7
20220624173622 92 257 4.0 10.0 0.00 0.00 0.00 55 1015.8
20220624173121 93 234 0.0 7.0 0.00 0.00 0.00 53 1015.6
20220624172619 93 296 5.0 8.0 0.00 0.00 0.00 52 1015.9
20220624172119 91 189 3.0 6.0 0.00 0.00 0.00 56 1015.8
20220624171618 91 302 9.0 11.0 0.00 0.00 0.00 56 1015.8
20220624171117 92 249 0.0 4.0 0.00 0.00 0.00 54 1015.8
20220624170615 90 227 3.0 10.0 0.00 0.00 0.00 56 1016.0
20220624170114 90 303 5.0 10.0 0.00 0.00 0.00 58 1015.8
20220624165613 93 265 4.0 4.0 0.00 0.00 0.00 55 1016.1
20220624165112 91 260 7.0 9.0 0.00 0.00 0.00 57 1015.9
20220624164611 90 319 0.0 4.0 0.00 0.00 0.00 57 1015.9
20220624164110 91 139 0.0 6.0 0.00 0.00 0.00 57 1016.0
20220624163609 91 274 5.0 11.0 0.00 0.00 0.00 57 1016.0
20220624163108 91 139 4.0 4.0 0.00 0.00 0.00 60 1016.0
20220624162607 90 243 3.0 6.0 0.00 0.00 0.00 59 1016.1
20220624162107 91 196 3.0 7.0 0.00 0.00 0.00 61 1016.0
20220624161606 90 299 7.0 11.0 0.00 0.00 0.00 60 1016.0
20220624161106 90 282 6.0 10.0 0.00 0.00 0.00 60 1015.9
20220624160605 89 217 2.0 10.0 0.00 0.00 0.00 63 1016.0
20220624160105 89 297 8.0 9.0 0.00 0.00 0.00 63 1016.0
20220624155605 89 229 5.0 9.0 0.00 0.00 0.00 63 1016.0
20220624155104 88 280 6.0 8.0 0.00 0.00 0.00 65 1016.0
20220624154604 89 284 5.0 9.0 0.00 0.00 0.00 65 1016.1
20220624154103 87 279 0.0 5.0 0.00 0.00 0.00 66 1016.0
20220624153602 87 290 7.0 8.0 0.00 0.00 0.00 66 1016.0
20220624153101 87 286 6.0 12.0 0.00 0.00 0.00 67 1016.1
20220624152601 87 278 0.0 7.0 0.00 0.00 0.00 67 1016.0
20220624152059 87 270 0.0 5.0 0.00 0.00 0.00 67 1015.8
20220624151558 87 321 5.0 10.0 0.00 0.00 0.00 67 1015.9
20220624151058 87 309 3.0 7.0 0.00 0.00 0.00 67 1015.9
20220624150557 87 275 6.0 13.0 0.00 0.00 0.00 66 1015.9
20220624150056 86 283 2.0 6.0 0.00 0.00 0.00 68 1015.9
20220624145556 87 285 4.0 7.0 0.00 0.00 0.00 66 1015.9
20220624145055 88 298 3.0 8.0 0.00 0.00 0.00 66 1016.1
20220624144554 87 264 2.0 8.0 0.00 0.00 0.00 67 1016.0
20220624144052 88 294 5.0 6.0 0.00 0.00 0.00 65 1015.8
20220624143552 87 302 6.0 9.0 0.00 0.00 0.00 67 1015.6
20220624143051 86 290 5.0 9.0 0.00 0.00 0.00 68 1015.8
20220624142550 86 299 4.0 7.0 0.00 0.00 0.00 68 1015.8
20220624142048 86 289 4.0 8.0 0.00 0.00 0.00 69 1015.8
20220624141549 85 328 3.0 9.0 0.00 0.00 0.00 71 1015.7
20220624141048 86 312 6.0 10.0 0.00 0.00 0.00 69 1015.7
20220624140547 85 314 5.0 9.0 0.00 0.00 0.00 70 1015.8
20220624140045 85 321 7.0 8.0 0.00 0.00 0.00 70 1015.7
20220624135545 85 309 7.0 10.0 0.00 0.00 0.00 70 1015.9
20220624135045 84 305 6.0 8.0 0.00 0.00 0.00 72 1015.6
20220624134544 85 268 7.0 11.0 0.00 0.00 0.00 70 1015.7
20220624134044 86 186 0.0 4.0 0.00 0.00 0.00 69 1015.8
20220624133543 85 275 4.0 8.0 0.00 0.00 0.00 70 1015.7
20220624133041 86 273 4.0 5.0 0.00 0.00 0.00 69 1015.9
20220624132541 84 277 1.0 6.0 0.00 0.00 0.00 71 1015.6
20220624132040 84 288 3.0 9.0 0.00 0.00 0.00 71 1015.8
20220624131539 84 275 4.0 8.0 0.00 0.00 0.00 71 1015.7
20220624131040 84 266 3.0 6.0 0.00 0.00 0.00 72 1015.7
20220624130539 84 293 4.0 6.0 0.00 0.00 0.00 71 1015.5
20220624130039 84 258 3.0 4.0 0.00 0.00 0.00 71 1015.7
20220624125538 84 275 4.0 7.0 0.00 0.00 0.00 72 1015.6
20220624125038 84 260 4.0 7.0 0.00 0.00 0.00 71 1015.6
20220624124537 84 265 2.0 5.0 0.00 0.00 0.00 72 1015.4
20220624124036 84 227 3.0 5.0 0.00 0.00 0.00 73 1015.3
20220624123536 83 241 3.0 6.0 0.00 0.00 0.00 74 1015.2
20220624123035 84 217 2.0 2.0 0.00 0.00 0.00 75 1015.2
20220624122535 82 246 2.0 3.0 0.00 0.00 0.00 76 1015.3
20220624122033 83 241 4.0 4.0 0.00 0.00 0.00 75 1015.2
20220624121532 82 198 2.0 3.0 0.00 0.00 0.00 76 1015.1
20220624121032 82 188 0.0 2.0 0.00 0.00 0.00 77 1015.1
20220624120531 82 270 0.0 4.0 0.00 0.00 0.00 77 1015.1
20220624120030 82 258 2.0 3.0 0.00 0.00 0.00 77 1014.9
20220624115530 82 263 3.0 3.0 0.00 0.00 0.00 79 1014.9
20220624115030 82 240 2.0 3.0 0.00 0.00 0.00 78 1014.9
20220624114529 83 187 1.0 2.0 0.00 0.00 0.00 77 1014.8
20220624114028 82 203 0.0 2.0 0.00 0.00 0.00 77 1014.8
20220624113526 82 195 0.0 2.0 0.00 0.00 0.00 78 1014.9
20220624113025 81 186 1.0 2.0 0.00 0.00 0.00 79 1014.6
20220624112522 80 195 0.0 2.0 0.00 0.00 0.00 80 1014.9
20220624112022 80 162 1.0 2.0 0.00 0.00 0.00 81 1014.9
20220624111521 80 180 1.0 2.0 0.00 0.00 0.00 82 1014.6
20220624111020 79 206 0.0 2.0 0.00 0.00 0.00 83 1014.6
20220624110520 79 163 2.0 3.0 0.00 0.00 0.00 84 1014.6
20220624110018 78 161 2.0 3.0 0.00 0.00 0.00 85 1014.7
20220624105518 78 165 2.0 3.0 0.00 0.00 0.00 85 1014.4
20220624105018 78 174 3.0 3.0 0.00 0.00 0.00 86 1014.4
20220624104517 78 180 1.0 2.0 0.00 0.00 0.00 86 1014.4
20220624104016 78 176 2.0 3.0 0.00 0.00 0.00 86 1014.3
20220624103515 78 162 2.0 3.0 0.00 0.00 0.00 86 1014.1
20220624103014 77 175 2.0 2.0 0.00 0.00 0.00 85 1014.4
20220624102513 77 173 2.0 2.0 0.00 0.00 0.00 85 1014.3
20220624102013 77 196 2.0 2.0 0.00 0.00 0.00 86 1014.3
20220624101512 77 186 1.0 2.0 0.00 0.00 0.00 86 1014.3
20220624101010 78 180 2.0 2.0 0.00 0.00 0.00 85 1014.4
20220624100509 78 192 1.0 2.0 0.00 0.00 0.00 85 1014.3
20220624100008 78 188 0.0 2.0 0.00 0.00 0.00 86 1014.2
20220624095508 78 192 0.0 2.0 0.00 0.00 0.00 86 1014.2
20220624095007 78 206 0.0 2.0 0.00 0.00 0.00 86 1014.0
20220624094505 78 234 0.0 2.0 0.00 0.00 0.00 86 1014.2
20220624094005 78 231 0.0 3.0 0.00 0.00 0.00 86 1014.2
20220624093504 78 215 0.0 2.0 0.00 0.00 0.00 86 1013.8
20220624093003 78 216 2.0 2.0 0.00 0.00 0.00 86 1014.0
20220624092503 78 201 2.0 3.0 0.00 0.00 0.00 86 1013.9
20220624092001 78 228 2.0 2.0 0.00 0.00 0.00 86 1014.0
20220624091501 78 196 2.0 2.0 0.00 0.00 0.00 87 1013.9
20220624091000 78 186 1.0 2.0 0.00 0.00 0.00 87 1013.8
20220624090459 78 172 0.0 3.0 0.00 0.00 0.00 87 1014.0
20220624085957 78 180 1.0 2.0 0.00 0.00 0.00 87 1014.1
20220624085457 78 194 2.0 2.0 0.00 0.00 0.00 87 1014.1
20220624084956 78 154 0.0 3.0 0.00 0.00 0.00 87 1014.0
20220624084455 78 201 2.0 4.0 0.00 0.00 0.00 88 1014.0
20220624083955 78 180 2.0 4.0 0.00 0.00 0.00 88 1013.9
20220624083454 78 198 1.0 3.0 0.00 0.00 0.00 88 1014.2
20220624082954 78 180 2.0 2.0 0.00 0.00 0.00 88 1014.2
20220624082453 78 190 2.0 3.0 0.00 0.00 0.00 88 1014.2
20220624081951 78 196 2.0 3.0 0.00 0.00 0.00 88 1014.2
20220624081450 78 180 1.0 3.0 0.00 0.00 0.00 87 1014.2
20220624080949 78 152 0.0 3.0 0.00 0.00 0.00 87 1013.9
20220624080448 78 154 1.0 2.0 0.00 0.00 0.00 87 1014.1
20220624075947 78 200 1.0 2.0 0.00 0.00 0.00 87 1014.1
20220624075446 78 191 0.0 2.0 0.00 0.00 0.00 86 1014.1
20220624074945 78 180 1.0 2.0 0.00 0.00 0.00 86 1014.1
20220624074445 78 191 2.0 2.0 0.00 0.00 0.00 86 1014.1
20220624073944 78 196 2.0 2.0 0.00 0.00 0.00 85 1014.0
20220624073444 78 195 1.0 2.0 0.00 0.00 0.00 85 1014.2
20220624072942 78 216 2.0 2.0 0.00 0.00 0.00 85 1014.2
20220624072442 78 199 2.0 2.0 0.00 0.00 0.00 84 1014.1
20220624071943 78 176 2.0 3.0 0.00 0.00 0.00 84 1014.1
20220624071441 78 188 2.0 3.0 0.00 0.00 0.00 84 1014.0
20220624070940 78 184 2.0 3.0 0.00 0.00 0.00 83 1014.1
20220624070439 78 180 0.0 3.0 0.00 0.00 0.00 83 1013.9
20220624065937 79 195 2.0 3.0 0.00 0.00 0.00 82 1014.1
20220624065436 79 159 3.0 4.0 0.00 0.00 0.00 82 1014.1
20220624064935 79 234 4.0 4.0 0.00 0.00 0.00 82 1014.0
20220624064433 79 180 2.0 4.0 0.00 0.00 0.00 82 1014.1
20220624063932 79 180 1.0 3.0 0.00 0.00 0.00 81 1014.0
20220624063432 79 195 0.0 4.0 0.00 0.00 0.00 81 1014.1
20220624062931 79 191 2.0 6.0 0.00 0.00 0.00 81 1014.1
20220624062431 79 187 2.0 4.0 0.00 0.00 0.00 81 1014.0
20220624061930 79 171 2.0 6.0 0.00 0.00 0.00 80 1014.1
20220624061429 79 170 6.0 7.0 0.00 0.00 0.00 80 1014.1
20220624060928 79 232 3.0 4.0 0.00 0.00 0.00 80 1014.5
20220624060426 79 194 1.0 5.0 0.00 0.00 0.00 80 1014.2
20220624055926 79 176 2.0 3.0 0.00 0.00 0.00 80 1014.2
20220624055425 79 180 2.0 4.0 0.00 0.00 0.00 80 1014.4
20220624054925 79 185 2.0 5.0 0.00 0.00 0.00 80 1014.4
20220624054425 79 173 6.0 8.0 0.00 0.00 0.00 79 1014.4
20220624053924 80 163 3.0 5.0 0.00 0.00 0.00 79 1014.6
20220624053423 80 179 6.0 6.0 0.00 0.00 0.00 79 1014.5
20220624052923 80 154 2.0 5.0 0.00 0.00 0.00 79 1014.5
20220624052422 80 203 3.0 6.0 0.00 0.00 0.00 78 1014.6
20220624051920 80 168 6.0 7.0 0.00 0.00 0.00 78 1014.8
20220624051416 80 194 3.0 5.0 0.00 0.00 0.00 78 1014.6
20220624050915 80 203 3.0 5.0 0.00 0.00 0.00 78 1014.5
20220624050414 80 203 2.0 6.0 0.00 0.00 0.00 78 1014.7
20220624045914 80 165 2.0 4.0 0.00 0.00 0.00 78 1014.4
20220624045413 80 188 4.0 7.0 0.00 0.00 0.00 78 1014.5
20220624044912 80 163 4.0 5.0 0.00 0.00 0.00 77 1014.7
20220624044412 80 168 2.0 6.0 0.00 0.00 0.00 77 1014.6
20220624043911 80 149 4.0 7.0 0.00 0.00 0.00 77 1014.7
20220624043410 80 182 3.0 4.0 0.00 0.00 0.00 77 1014.5
20220624042909 80 154 4.0 6.0 0.00 0.00 0.00 76 1014.6
20220624042408 81 180 2.0 4.0 0.00 0.00 0.00 76 1014.6
20220624041908 81 175 6.0 8.0 0.00 0.00 0.00 76 1014.8
20220624041407 81 208 3.0 11.0 0.00 0.00 0.00 75 1014.9
20220624040907 81 184 4.0 8.0 0.00 0.00 0.00 75 1015.1
20220624040405 81 199 4.0 7.0 0.00 0.00 0.00 75 1014.7
20220624035905 81 183 3.0 11.0 0.00 0.04 0.04 74 1014.8
20220624035404 81 209 4.0 10.0 0.00 0.04 0.04 74 1014.7
20220624034903 82 190 2.0 5.0 0.00 0.04 0.04 74 1015.0
20220624034402 82 147 4.0 11.0 0.00 0.04 0.04 73 1014.7
20220624033901 82 150 0.0 10.0 0.00 0.04 0.04 73 1014.5
20220624033400 82 166 7.0 9.0 0.00 0.04 0.04 73 1014.7
20220624032859 82 150 5.0 6.0 0.00 0.04 0.04 73 1014.7
20220624032359 82 169 6.0 10.0 0.00 0.04 0.04 72 1014.8
20220624031859 82 143 5.0 9.0 0.00 0.04 0.04 73 1014.8
20220624031358 82 180 8.0 10.0 0.00 0.04 0.04 71 1014.7
20220624030857 82 116 4.0 12.0 0.00 0.04 0.04 71 1014.7
20220624030357 82 170 3.0 13.0 0.00 0.04 0.04 71 1014.6
20220624025856 82 145 4.0 12.0 0.00 0.04 0.04 71 1014.6
20220624025356 82 164 7.0 12.0 0.00 0.04 0.04 71 1014.5
20220624024856 82 153 7.0 9.0 0.00 0.04 0.04 70 1014.3
20220624024356 82 144 7.0 13.0 0.00 0.04 0.04 70 1014.5
20220624023856 82 151 3.0 11.0 0.00 0.04 0.04 69 1014.6
20220624023355 82 179 7.0 13.0 0.00 0.04 0.04 70 1014.7
20220624022854 82 164 3.0 9.0 0.00 0.04 0.04 71 1014.5
20220624022353 82 154 5.0 12.0 0.00 0.04 0.04 71 1014.5
20220624021852 82 142 5.0 11.0 0.00 0.04 0.04 71 1014.3
20220624021352 82 162 6.0 9.0 0.00 0.04 0.04 71 1014.1
20220624020851 82 156 6.0 8.0 0.00 0.04 0.04 71 1014.3
20220624020350 83 204 2.0 7.0 0.00 0.04 0.04 71 1014.2
20220624015849 82 164 5.0 10.0 0.00 0.04 0.04 71 1014.2
20220624015349 83 150 8.0 16.0 0.00 0.04 0.04 71 1014.1
20220624014849 83 146 4.0 14.0 0.00 0.04 0.04 71 1014.3
20220624014349 83 162 7.0 9.0 0.00 0.04 0.04 70 1014.0
20220624013848 83 155 5.0 11.0 0.00 0.04 0.04 71 1013.9
20220624013348 83 147 13.0 13.0 0.00 0.04 0.04 70 1014.0
20220624012846 83 164 5.0 9.0 0.00 0.04 0.04 69 1013.9
20220624012346 83 185 11.0 11.0 0.00 0.04 0.04 69 1014.1
20220624011845 83 148 5.0 10.0 0.00 0.04 0.04 69 1013.8
20220624011344 83 143 13.0 13.0 0.00 0.04 0.04 68 1013.9
20220624010843 83 135 6.0 10.0 0.00 0.04 0.04 70 1013.8
20220624010342 83 120 5.0 9.0 0.00 0.04 0.04 69 1013.7
20220624005842 83 134 12.0 12.0 0.00 0.04 0.04 68 1013.6
20220624005341 83 119 7.0 9.0 0.00 0.04 0.04 68 1013.7
20220624004840 84 145 5.0 9.0 0.00 0.04 0.04 68 1013.8
20220624004339 84 143 7.0 9.0 0.00 0.04 0.04 67 1013.5
20220624003839 84 144 6.0 10.0 0.00 0.04 0.04 68 1013.5
20220624003337 84 170 3.0 9.0 0.00 0.04 0.04 67 1013.5
20220624002836 84 164 6.0 8.0 0.00 0.04 0.04 67 1013.6
20220624002336 84 113 7.0 9.0 0.00 0.04 0.04 67 1013.7
20220624001835 84 139 7.0 11.0 0.00 0.04 0.04 65 1013.5
20220624001335 84 138 8.0 12.0 0.00 0.04 0.04 65 1013.4
20220624000834 85 157 7.0 8.0 0.00 0.04 0.04 64 1013.4
20220624000334 85 121 7.0 11.0 0.00 0.04 0.04 63 1013.4
20220623235834 85 139 7.0 11.0 0.00 0.04 0.04 63 1013.3
20220623235334 85 138 10.0 13.0 0.00 0.04 0.04 63 1013.4
20220623234834 86 139 8.0 11.0 0.00 0.04 0.04 62 1013.3
20220623234334 86 168 3.0 17.0 0.00 0.04 0.04 62 1013.0
20220623233834 86 146 12.0 14.0 0.00 0.04 0.04 61 1013.2
20220623233333 86 124 9.0 11.0 0.00 0.04 0.04 60 1013.2